sensor_id;sensor_type;location;lat;lon;timestamp;P1;durP1;ratioP1;P2;durP2;ratioP2
58260;SDS011;44058;52.898;6.502;2023-05-10T00:02:02;9.45;;;8.55;;
58260;SDS011;44058;52.898;6.502;2023-05-10T00:04:32;9.82;;;8.82;;
58260;SDS011;44058;52.898;6.502;2023-05-10T00:06:59;9.18;;;8.35;;
58260;SDS011;44058;52.898;6.502;2023-05-10T00:09:25;9.00;;;8.10;;
58260;SDS011;44058;52.898;6.502;2023-05-10T00:11:51;8.52;;;7.72;;
58260;SDS011;44058;52.898;6.502;2023-05-10T00:14:17;10.32;;;8.35;;
58260;SDS011;44058;52.898;6.502;2023-05-10T00:16:43;9.00;;;8.10;;
58260;SDS011;44058;52.898;6.502;2023-05-10T00:19:10;8.80;;;7.90;;
58260;SDS011;44058;52.898;6.502;2023-05-10T00:21:36;8.70;;;7.80;;
58260;SDS011;44058;52.898;6.502;2023-05-10T00:24:03;9.10;;;8.20;;
58260;SDS011;44058;52.898;6.502;2023-05-10T00:26:31;8.82;;;7.93;;
58260;SDS011;44058;52.898;6.502;2023-05-10T00:28:58;8.57;;;7.68;;
58260;SDS011;44058;52.898;6.502;2023-05-10T00:31:24;8.55;;;7.47;;
58260;SDS011;44058;52.898;6.502;2023-05-10T00:33:51;8.82;;;8.02;;
58260;SDS011;44058;52.898;6.502;2023-05-10T00:36:17;8.77;;;7.80;;
58260;SDS011;44058;52.898;6.502;2023-05-10T00:38:43;9.02;;;8.13;;
58260;SDS011;44058;52.898;6.502;2023-05-10T00:41:14;9.13;;;8.23;;
58260;SDS011;44058;52.898;6.502;2023-05-10T00:43:41;9.02;;;8.15;;
58260;SDS011;44058;52.898;6.502;2023-05-10T00:46:07;9.15;;;8.20;;
58260;SDS011;44058;52.898;6.502;2023-05-10T00:48:33;8.70;;;7.80;;
58260;SDS011;44058;52.898;6.502;2023-05-10T00:51:00;8.43;;;7.60;;
58260;SDS011;44058;52.898;6.502;2023-05-10T00:53:27;9.88;;;8.02;;
58260;SDS011;44058;52.898;6.502;2023-05-10T00:55:53;8.27;;;7.47;;
58260;SDS011;44058;52.898;6.502;2023-05-10T00:58:19;10.93;;;8.80;;
58260;SDS011;44058;52.898;6.502;2023-05-10T01:00:47;8.70;;;7.80;;
58260;SDS011;44058;52.898;6.502;2023-05-10T01:03:14;10.95;;;8.38;;
58260;SDS011;44058;52.898;6.502;2023-05-10T01:05:40;9.23;;;8.13;;
58260;SDS011;44058;52.898;6.502;2023-05-10T01:08:07;8.90;;;7.72;;
58260;SDS011;44058;52.898;6.502;2023-05-10T01:10:33;10.73;;;7.63;;
58260;SDS011;44058;52.898;6.502;2023-05-10T01:13:01;9.10;;;7.88;;
58260;SDS011;44058;52.898;6.502;2023-05-10T01:15:28;10.23;;;8.23;;
58260;SDS011;44058;52.898;6.502;2023-05-10T01:17:54;9.82;;;7.80;;
58260;SDS011;44058;52.898;6.502;2023-05-10T01:20:21;9.88;;;8.60;;
58260;SDS011;44058;52.898;6.502;2023-05-10T01:23:04;12.70;;;8.30;;
58260;SDS011;44058;52.898;6.502;2023-05-10T01:33:55;8.95;;;8.05;;
58260;SDS011;44058;52.898;6.502;2023-05-10T01:36:24;11.82;;;8.65;;
58260;SDS011;44058;52.898;6.502;2023-05-10T01:39:02;10.38;;;7.65;;
58260;SDS011;44058;52.898;6.502;2023-05-10T01:41:36;8.00;;;6.82;;
58260;SDS011;44058;52.898;6.502;2023-05-10T01:46:36;10.18;;;7.63;;
58260;SDS011;44058;52.898;6.502;2023-05-10T01:49:05;7.93;;;6.53;;
58260;SDS011;44058;52.898;6.502;2023-05-10T01:51:36;8.80;;;7.45;;
58260;SDS011;44058;52.898;6.502;2023-05-10T01:54:04;10.10;;;8.00;;
58260;SDS011;44058;52.898;6.502;2023-05-10T01:56:32;8.77;;;7.28;;
58260;SDS011;44058;52.898;6.502;2023-05-10T01:58:59;9.27;;;6.97;;
58260;SDS011;44058;52.898;6.502;2023-05-10T02:01:27;9.05;;;7.20;;
58260;SDS011;44058;52.898;6.502;2023-05-10T02:03:54;7.72;;;6.93;;
58260;SDS011;44058;52.898;6.502;2023-05-10T02:06:21;7.70;;;6.60;;
58260;SDS011;44058;52.898;6.502;2023-05-10T02:08:53;8.55;;;6.93;;
58260;SDS011;44058;52.898;6.502;2023-05-10T02:11:25;9.60;;;7.57;;
58260;SDS011;44058;52.898;6.502;2023-05-10T02:13:52;8.20;;;7.32;;
58260;SDS011;44058;52.898;6.502;2023-05-10T02:16:20;9.10;;;7.22;;
58260;SDS011;44058;52.898;6.502;2023-05-10T02:18:49;8.88;;;6.90;;
58260;SDS011;44058;52.898;6.502;2023-05-10T02:21:17;8.73;;;6.82;;
58260;SDS011;44058;52.898;6.502;2023-05-10T02:23:43;9.23;;;7.35;;
58260;SDS011;44058;52.898;6.502;2023-05-10T02:26:10;7.80;;;6.53;;
58260;SDS011;44058;52.898;6.502;2023-05-10T02:28:37;7.70;;;6.32;;
58260;SDS011;44058;52.898;6.502;2023-05-10T02:31:04;7.57;;;6.32;;
58260;SDS011;44058;52.898;6.502;2023-05-10T02:33:31;7.88;;;6.75;;
58260;SDS011;44058;52.898;6.502;2023-05-10T02:35:57;7.10;;;6.38;;
58260;SDS011;44058;52.898;6.502;2023-05-10T02:38:24;8.05;;;6.55;;
58260;SDS011;44058;52.898;6.502;2023-05-10T02:40:51;8.30;;;7.38;;
58260;SDS011;44058;52.898;6.502;2023-05-10T02:43:18;7.60;;;6.57;;
58260;SDS011;44058;52.898;6.502;2023-05-10T02:45:51;12.80;;;7.40;;
58260;SDS011;44058;52.898;6.502;2023-05-10T02:48:17;8.25;;;7.18;;
58260;SDS011;44058;52.898;6.502;2023-05-10T02:50:44;8.00;;;6.38;;
58260;SDS011;44058;52.898;6.502;2023-05-10T02:53:14;7.00;;;6.28;;
58260;SDS011;44058;52.898;6.502;2023-05-10T02:55:41;7.07;;;6.38;;
58260;SDS011;44058;52.898;6.502;2023-05-10T02:58:09;7.80;;;7.00;;
58260;SDS011;44058;52.898;6.502;2023-05-10T03:00:35;7.30;;;6.38;;
58260;SDS011;44058;52.898;6.502;2023-05-10T03:03:02;7.72;;;6.05;;
58260;SDS011;44058;52.898;6.502;2023-05-10T03:05:29;7.18;;;6.47;;
58260;SDS011;44058;52.898;6.502;2023-05-10T03:07:55;8.77;;;6.57;;
58260;SDS011;44058;52.898;6.502;2023-05-10T03:10:27;6.63;;;5.93;;
58260;SDS011;44058;52.898;6.502;2023-05-10T03:12:57;8.27;;;6.25;;
58260;SDS011;44058;52.898;6.502;2023-05-10T03:18:05;7.78;;;5.93;;
58260;SDS011;44058;52.898;6.502;2023-05-10T03:20:36;7.53;;;5.88;;
58260;SDS011;44058;52.898;6.502;2023-05-10T03:23:04;6.18;;;5.57;;
58260;SDS011;44058;52.898;6.502;2023-05-10T03:25:31;6.03;;;5.40;;
58260;SDS011;44058;52.898;6.502;2023-05-10T03:27:57;6.07;;;5.47;;
58260;SDS011;44058;52.898;6.502;2023-05-10T03:30:24;7.47;;;5.30;;
58260;SDS011;44058;52.898;6.502;2023-05-10T03:32:50;5.35;;;4.85;;
58260;SDS011;44058;52.898;6.502;2023-05-10T03:35:16;4.80;;;4.40;;
58260;SDS011;44058;52.898;6.502;2023-05-10T03:37:50;5.18;;;4.28;;
58260;SDS011;44058;52.898;6.502;2023-05-10T03:40:16;4.43;;;3.85;;
58260;SDS011;44058;52.898;6.502;2023-05-10T03:42:42;5.22;;;4.47;;
58260;SDS011;44058;52.898;6.502;2023-05-10T03:45:08;6.18;;;4.55;;
58260;SDS011;44058;52.898;6.502;2023-05-10T03:47:35;5.20;;;4.55;;
58260;SDS011;44058;52.898;6.502;2023-05-10T03:50:01;5.32;;;4.70;;
58260;SDS011;44058;52.898;6.502;2023-05-10T03:52:27;5.38;;;4.88;;
58260;SDS011;44058;52.898;6.502;2023-05-10T03:54:53;5.40;;;4.93;;
58260;SDS011;44058;52.898;6.502;2023-05-10T03:57:20;6.90;;;5.95;;
58260;SDS011;44058;52.898;6.502;2023-05-10T03:59:46;7.68;;;6.90;;
58260;SDS011;44058;52.898;6.502;2023-05-10T04:02:12;7.32;;;6.60;;
58260;SDS011;44058;52.898;6.502;2023-05-10T04:04:39;7.68;;;6.95;;
58260;SDS011;44058;52.898;6.502;2023-05-10T04:07:05;8.35;;;7.55;;
58260;SDS011;44058;52.898;6.502;2023-05-10T04:09:31;7.18;;;6.38;;
58260;SDS011;44058;52.898;6.502;2023-05-10T04:11:58;7.68;;;6.93;;
58260;SDS011;44058;52.898;6.502;2023-05-10T04:14:25;7.30;;;6.60;;
58260;SDS011;44058;52.898;6.502;2023-05-10T04:16:51;7.10;;;6.40;;
58260;SDS011;44058;52.898;6.502;2023-05-10T04:19:17;9.40;;;6.45;;
58260;SDS011;44058;52.898;6.502;2023-05-10T04:21:48;7.75;;;6.10;;
58260;SDS011;44058;52.898;6.502;2023-05-10T04:24:14;6.63;;;6.03;;
58260;SDS011;44058;52.898;6.502;2023-05-10T04:26:40;6.25;;;5.65;;
58260;SDS011;44058;52.898;6.502;2023-05-10T04:29:06;6.30;;;5.22;;
58260;SDS011;44058;52.898;6.502;2023-05-10T04:31:32;5.85;;;5.25;;
58260;SDS011;44058;52.898;6.502;2023-05-10T04:34:01;7.00;;;5.88;;
58260;SDS011;44058;52.898;6.502;2023-05-10T04:36:27;9.30;;;5.90;;
58260;SDS011;44058;52.898;6.502;2023-05-10T04:38:54;7.60;;;6.30;;
58260;SDS011;44058;52.898;6.502;2023-05-10T04:41:20;6.47;;;5.82;;
58260;SDS011;44058;52.898;6.502;2023-05-10T04:43:46;7.13;;;6.43;;
58260;SDS011;44058;52.898;6.502;2023-05-10T04:46:14;6.40;;;5.80;;
58260;SDS011;44058;52.898;6.502;2023-05-10T04:48:40;7.10;;;6.40;;
58260;SDS011;44058;52.898;6.502;2023-05-10T04:51:07;7.47;;;6.15;;
58260;SDS011;44058;52.898;6.502;2023-05-10T04:53:53;7.28;;;6.57;;
58260;SDS011;44058;52.898;6.502;2023-05-10T04:56:40;7.40;;;6.65;;
58260;SDS011;44058;52.898;6.502;2023-05-10T04:59:26;7.13;;;6.20;;
58260;SDS011;44058;52.898;6.502;2023-05-10T05:02:12;6.88;;;6.18;;
58260;SDS011;44058;52.898;6.502;2023-05-10T05:04:58;7.88;;;6.40;;
58260;SDS011;44058;52.898;6.502;2023-05-10T05:07:44;7.10;;;6.30;;
58260;SDS011;44058;52.898;6.502;2023-05-10T05:10:31;9.13;;;6.35;;
58260;SDS011;44058;52.898;6.502;2023-05-10T05:12:57;6.28;;;5.65;;
58260;SDS011;44058;52.898;6.502;2023-05-10T05:15:23;6.82;;;6.10;;
58260;SDS011;44058;52.898;6.502;2023-05-10T05:17:49;6.68;;;5.80;;
58260;SDS011;44058;52.898;6.502;2023-05-10T05:20:15;7.57;;;6.28;;
58260;SDS011;44058;52.898;6.502;2023-05-10T05:22:42;8.52;;;6.20;;
58260;SDS011;44058;52.898;6.502;2023-05-10T05:25:08;7.80;;;6.93;;
58260;SDS011;44058;52.898;6.502;2023-05-10T05:27:34;8.07;;;6.78;;
58260;SDS011;44058;52.898;6.502;2023-05-10T05:30:00;9.68;;;6.40;;
58260;SDS011;44058;52.898;6.502;2023-05-10T05:32:27;7.07;;;6.18;;
58260;SDS011;44058;52.898;6.502;2023-05-10T05:34:53;7.13;;;6.05;;
58260;SDS011;44058;52.898;6.502;2023-05-10T05:37:20;7.03;;;5.88;;
58260;SDS011;44058;52.898;6.502;2023-05-10T05:39:46;6.80;;;5.63;;
58260;SDS011;44058;52.898;6.502;2023-05-10T05:42:12;6.93;;;5.55;;
58260;SDS011;44058;52.898;6.502;2023-05-10T05:44:39;7.43;;;5.93;;
58260;SDS011;44058;52.898;6.502;2023-05-10T05:47:06;8.98;;;7.30;;
58260;SDS011;44058;52.898;6.502;2023-05-10T05:49:32;8.93;;;6.90;;
58260;SDS011;44058;52.898;6.502;2023-05-10T05:52:02;7.97;;;7.03;;
58260;SDS011;44058;52.898;6.502;2023-05-10T05:54:28;10.75;;;7.13;;
58260;SDS011;44058;52.898;6.502;2023-05-10T05:56:56;7.82;;;6.10;;
58260;SDS011;44058;52.898;6.502;2023-05-10T05:59:22;8.85;;;6.50;;
58260;SDS011;44058;52.898;6.502;2023-05-10T06:01:56;8.65;;;6.55;;
58260;SDS011;44058;52.898;6.502;2023-05-10T06:04:22;8.23;;;6.32;;
58260;SDS011;44058;52.898;6.502;2023-05-10T06:06:49;7.78;;;6.05;;
58260;SDS011;44058;52.898;6.502;2023-05-10T06:09:15;6.28;;;5.50;;
58260;SDS011;44058;52.898;6.502;2023-05-10T06:11:41;6.57;;;5.50;;
58260;SDS011;44058;52.898;6.502;2023-05-10T06:14:07;7.60;;;5.07;;
58260;SDS011;44058;52.898;6.502;2023-05-10T06:16:34;6.18;;;5.00;;
58260;SDS011;44058;52.898;6.502;2023-05-10T06:19:00;6.60;;;4.80;;
58260;SDS011;44058;52.898;6.502;2023-05-10T06:21:26;5.22;;;4.72;;
58260;SDS011;44058;52.898;6.502;2023-05-10T06:23:52;5.18;;;4.65;;
58260;SDS011;44058;52.898;6.502;2023-05-10T06:26:18;7.97;;;5.32;;
58260;SDS011;44058;52.898;6.502;2023-05-10T06:28:45;6.53;;;4.80;;
58260;SDS011;44058;52.898;6.502;2023-05-10T06:31:12;6.05;;;4.88;;
58260;SDS011;44058;52.898;6.502;2023-05-10T06:33:38;4.53;;;4.13;;
58260;SDS011;44058;52.898;6.502;2023-05-10T06:36:04;5.00;;;4.30;;
58260;SDS011;44058;52.898;6.502;2023-05-10T06:38:30;5.00;;;4.53;;
58260;SDS011;44058;52.898;6.502;2023-05-10T06:40:56;5.25;;;4.30;;
58260;SDS011;44058;52.898;6.502;2023-05-10T06:43:22;4.43;;;4.03;;
58260;SDS011;44058;52.898;6.502;2023-05-10T06:45:49;4.10;;;3.60;;
58260;SDS011;44058;52.898;6.502;2023-05-10T06:48:16;3.92;;;3.63;;
58260;SDS011;44058;52.898;6.502;2023-05-10T06:50:42;4.38;;;3.53;;
58260;SDS011;44058;52.898;6.502;2023-05-10T06:53:09;4.00;;;3.28;;
58260;SDS011;44058;52.898;6.502;2023-05-10T06:55:35;3.70;;;3.40;;
58260;SDS011;44058;52.898;6.502;2023-05-10T06:58:01;3.83;;;3.00;;
58260;SDS011;44058;52.898;6.502;2023-05-10T07:00:27;3.80;;;2.75;;
58260;SDS011;44058;52.898;6.502;2023-05-10T07:02:53;3.90;;;3.03;;
58260;SDS011;44058;52.898;6.502;2023-05-10T07:05:20;4.88;;;2.95;;
58260;SDS011;44058;52.898;6.502;2023-05-10T07:07:47;3.03;;;2.72;;
58260;SDS011;44058;52.898;6.502;2023-05-10T07:10:13;4.40;;;3.05;;
58260;SDS011;44058;52.898;6.502;2023-05-10T07:12:39;3.03;;;2.70;;
58260;SDS011;44058;52.898;6.502;2023-05-10T07:15:05;4.10;;;2.90;;
58260;SDS011;44058;52.898;6.502;2023-05-10T07:17:31;5.43;;;2.90;;
58260;SDS011;44058;52.898;6.502;2023-05-10T07:19:58;3.20;;;2.90;;
58260;SDS011;44058;52.898;6.502;2023-05-10T07:22:25;3.05;;;2.75;;
58260;SDS011;44058;52.898;6.502;2023-05-10T07:24:51;3.00;;;2.70;;
58260;SDS011;44058;52.898;6.502;2023-05-10T07:27:17;4.10;;;3.13;;
58260;SDS011;44058;52.898;6.502;2023-05-10T07:29:43;3.17;;;2.50;;
58260;SDS011;44058;52.898;6.502;2023-05-10T07:32:09;3.58;;;3.13;;
58260;SDS011;44058;52.898;6.502;2023-05-10T07:34:36;3.40;;;3.10;;
58260;SDS011;44058;52.898;6.502;2023-05-10T07:37:02;3.28;;;2.97;;
58260;SDS011;44058;52.898;6.502;2023-05-10T07:39:28;3.40;;;3.10;;
58260;SDS011;44058;52.898;6.502;2023-05-10T07:41:54;5.25;;;3.20;;
58260;SDS011;44058;52.898;6.502;2023-05-10T07:44:21;3.65;;;3.33;;
58260;SDS011;44058;52.898;6.502;2023-05-10T07:46:47;2.78;;;2.47;;
58260;SDS011;44058;52.898;6.502;2023-05-10T07:49:13;4.40;;;2.85;;
58260;SDS011;44058;52.898;6.502;2023-05-10T07:51:40;3.28;;;2.55;;
58260;SDS011;44058;52.898;6.502;2023-05-10T07:54:07;2.85;;;2.65;;
58260;SDS011;44058;52.898;6.502;2023-05-10T07:56:33;3.00;;;2.70;;
58260;SDS011;44058;52.898;6.502;2023-05-10T07:59:00;3.03;;;2.72;;
58260;SDS011;44058;52.898;6.502;2023-05-10T08:01:26;3.42;;;2.70;;
58260;SDS011;44058;52.898;6.502;2023-05-10T08:03:55;4.80;;;3.22;;
58260;SDS011;44058;52.898;6.502;2023-05-10T08:06:21;3.00;;;2.80;;
58260;SDS011;44058;52.898;6.502;2023-05-10T08:08:48;3.45;;;3.15;;
58260;SDS011;44058;52.898;6.502;2023-05-10T08:11:16;3.88;;;3.10;;
58260;SDS011;44058;52.898;6.502;2023-05-10T08:13:42;3.90;;;2.97;;
58260;SDS011;44058;52.898;6.502;2023-05-10T08:16:08;4.30;;;3.25;;
58260;SDS011;44058;52.898;6.502;2023-05-10T08:18:34;3.72;;;3.33;;
58260;SDS011;44058;52.898;6.502;2023-05-10T08:21:00;3.78;;;3.03;;
58260;SDS011;44058;52.898;6.502;2023-05-10T08:23:26;3.80;;;3.33;;
58260;SDS011;44058;52.898;6.502;2023-05-10T08:25:52;3.40;;;3.10;;
58260;SDS011;44058;52.898;6.502;2023-05-10T08:28:19;3.60;;;3.30;;
58260;SDS011;44058;52.898;6.502;2023-05-10T08:30:45;3.33;;;3.03;;
58260;SDS011;44058;52.898;6.502;2023-05-10T08:33:11;3.10;;;2.80;;
58260;SDS011;44058;52.898;6.502;2023-05-10T08:35:37;3.55;;;3.10;;
58260;SDS011;44058;52.898;6.502;2023-05-10T08:38:03;5.05;;;3.33;;
58260;SDS011;44058;52.898;6.502;2023-05-10T08:40:29;4.80;;;3.72;;
58260;SDS011;44058;52.898;6.502;2023-05-10T08:42:57;3.20;;;2.90;;
58260;SDS011;44058;52.898;6.502;2023-05-10T08:45:24;2.78;;;2.33;;
58260;SDS011;44058;52.898;6.502;2023-05-10T08:47:51;3.72;;;3.00;;
58260;SDS011;44058;52.898;6.502;2023-05-10T08:50:18;5.18;;;3.10;;
58260;SDS011;44058;52.898;6.502;2023-05-10T08:55:13;4.05;;;3.05;;
58260;SDS011;44058;52.898;6.502;2023-05-10T08:57:39;5.53;;;3.08;;
58260;SDS011;44058;52.898;6.502;2023-05-10T09:00:06;4.68;;;3.25;;
58260;SDS011;44058;52.898;6.502;2023-05-10T09:02:33;4.47;;;3.20;;
58260;SDS011;44058;52.898;6.502;2023-05-10T09:04:59;6.53;;;3.17;;
58260;SDS011;44058;52.898;6.502;2023-05-10T09:07:26;4.20;;;2.95;;
58260;SDS011;44058;52.898;6.502;2023-05-10T09:09:53;3.45;;;3.15;;
58260;SDS011;44058;52.898;6.502;2023-05-10T09:12:19;3.75;;;3.13;;
58260;SDS011;44058;52.898;6.502;2023-05-10T09:14:46;3.13;;;2.83;;
58260;SDS011;44058;52.898;6.502;2023-05-10T09:17:12;3.78;;;3.38;;
58260;SDS011;44058;52.898;6.502;2023-05-10T09:19:38;4.15;;;3.10;;
58260;SDS011;44058;52.898;6.502;2023-05-10T09:22:04;3.95;;;3.10;;
58260;SDS011;44058;52.898;6.502;2023-05-10T09:24:30;4.43;;;3.70;;
58260;SDS011;44058;52.898;6.502;2023-05-10T09:26:57;4.47;;;3.70;;
58260;SDS011;44058;52.898;6.502;2023-05-10T09:29:23;8.48;;;3.80;;
58260;SDS011;44058;52.898;6.502;2023-05-10T09:31:50;5.10;;;3.35;;
58260;SDS011;44058;52.898;6.502;2023-05-10T09:34:20;3.70;;;3.20;;
58260;SDS011;44058;52.898;6.502;2023-05-10T09:36:50;3.45;;;3.15;;
58260;SDS011;44058;52.898;6.502;2023-05-10T09:39:16;3.30;;;3.00;;
58260;SDS011;44058;52.898;6.502;2023-05-10T09:41:42;3.85;;;3.03;;
58260;SDS011;44058;52.898;6.502;2023-05-10T09:44:09;4.50;;;3.30;;
58260;SDS011;44058;52.898;6.502;2023-05-10T09:46:35;3.90;;;3.50;;
58260;SDS011;44058;52.898;6.502;2023-05-10T09:49:02;4.63;;;3.50;;
58260;SDS011;44058;52.898;6.502;2023-05-10T09:51:28;4.15;;;3.78;;
58260;SDS011;44058;52.898;6.502;2023-05-10T09:54:16;4.18;;;3.38;;
58260;SDS011;44058;52.898;6.502;2023-05-10T09:56:41;3.63;;;3.33;;
58260;SDS011;44058;52.898;6.502;2023-05-10T09:59:08;4.15;;;3.72;;
58260;SDS011;44058;52.898;6.502;2023-05-10T10:01:35;4.77;;;3.90;;
58260;SDS011;44058;52.898;6.502;2023-05-10T10:04:02;4.40;;;3.83;;
58260;SDS011;44058;52.898;6.502;2023-05-10T10:06:29;5.68;;;3.78;;
58260;SDS011;44058;52.898;6.502;2023-05-10T10:08:55;3.83;;;3.40;;
58260;SDS011;44058;52.898;6.502;2023-05-10T10:11:22;3.78;;;3.33;;
58260;SDS011;44058;52.898;6.502;2023-05-10T10:13:49;3.50;;;3.13;;
58260;SDS011;44058;52.898;6.502;2023-05-10T10:16:15;3.60;;;3.30;;
58260;SDS011;44058;52.898;6.502;2023-05-10T10:18:41;3.65;;;3.35;;
58260;SDS011;44058;52.898;6.502;2023-05-10T10:21:08;4.07;;;3.17;;
58260;SDS011;44058;52.898;6.502;2023-05-10T10:23:34;3.75;;;3.42;;
58260;SDS011;44058;52.898;6.502;2023-05-10T10:26:01;3.75;;;3.22;;
58260;SDS011;44058;52.898;6.502;2023-05-10T10:31:18;4.03;;;3.17;;
58260;SDS011;44058;52.898;6.502;2023-05-10T10:33:56;3.60;;;3.30;;
58260;SDS011;44058;52.898;6.502;2023-05-10T10:38:55;3.15;;;2.83;;
58260;SDS011;44058;52.898;6.502;2023-05-10T10:41:32;3.03;;;2.60;;
58260;SDS011;44058;52.898;6.502;2023-05-10T10:46:59;3.88;;;2.83;;
58260;SDS011;44058;52.898;6.502;2023-05-10T10:49:26;2.60;;;2.40;;
58260;SDS011;44058;52.898;6.502;2023-05-10T10:54:36;5.00;;;3.08;;
58260;SDS011;44058;52.898;6.502;2023-05-10T10:57:12;4.13;;;3.38;;
58260;SDS011;44058;52.898;6.502;2023-05-10T10:59:44;4.35;;;3.30;;
58260;SDS011;44058;52.898;6.502;2023-05-10T11:02:32;4.60;;;3.33;;
58260;SDS011;44058;52.898;6.502;2023-05-10T11:04:58;7.93;;;3.55;;
58260;SDS011;44058;52.898;6.502;2023-05-10T11:07:25;4.07;;;3.40;;
58260;SDS011;44058;52.898;6.502;2023-05-10T11:09:52;5.28;;;3.50;;
58260;SDS011;44058;52.898;6.502;2023-05-10T11:12:18;4.30;;;3.40;;
58260;SDS011;44058;52.898;6.502;2023-05-10T11:14:49;4.18;;;3.30;;
58260;SDS011;44058;52.898;6.502;2023-05-10T11:17:26;6.32;;;3.67;;
58260;SDS011;44058;52.898;6.502;2023-05-10T11:20:09;4.95;;;4.55;;
58260;SDS011;44058;52.898;6.502;2023-05-10T11:22:54;8.63;;;4.72;;
58260;SDS011;44058;52.898;6.502;2023-05-10T11:25:25;6.25;;;5.30;;
58260;SDS011;44058;52.898;6.502;2023-05-10T11:27:52;6.13;;;5.32;;
58260;SDS011;44058;52.898;6.502;2023-05-10T11:30:18;6.43;;;5.40;;
58260;SDS011;44058;52.898;6.502;2023-05-10T11:32:45;5.68;;;5.07;;
58260;SDS011;44058;52.898;6.502;2023-05-10T11:35:11;7.63;;;6.43;;
58260;SDS011;44058;52.898;6.502;2023-05-10T11:37:38;5.13;;;4.63;;
58260;SDS011;44058;52.898;6.502;2023-05-10T11:40:08;5.68;;;5.07;;
58260;SDS011;44058;52.898;6.502;2023-05-10T11:42:37;6.43;;;5.10;;
58260;SDS011;44058;52.898;6.502;2023-05-10T11:45:04;5.18;;;4.68;;
58260;SDS011;44058;52.898;6.502;2023-05-10T11:47:30;6.03;;;4.90;;
58260;SDS011;44058;52.898;6.502;2023-05-10T11:49:56;5.50;;;5.00;;
58260;SDS011;44058;52.898;6.502;2023-05-10T11:52:23;6.47;;;5.07;;
58260;SDS011;44058;52.898;6.502;2023-05-10T11:54:52;5.82;;;5.07;;
58260;SDS011;44058;52.898;6.502;2023-05-10T11:57:18;5.43;;;4.93;;
58260;SDS011;44058;52.898;6.502;2023-05-10T11:59:47;6.57;;;5.45;;
58260;SDS011;44058;52.898;6.502;2023-05-10T12:02:19;6.20;;;5.45;;
58260;SDS011;44058;52.898;6.502;2023-05-10T12:04:45;8.40;;;6.25;;
58260;SDS011;44058;52.898;6.502;2023-05-10T12:07:12;7.45;;;5.28;;
58260;SDS011;44058;52.898;6.502;2023-05-10T12:09:42;6.10;;;4.68;;
58260;SDS011;44058;52.898;6.502;2023-05-10T12:12:09;6.03;;;4.97;;
58260;SDS011;44058;52.898;6.502;2023-05-10T12:14:36;5.13;;;4.60;;
58260;SDS011;44058;52.898;6.502;2023-05-10T12:17:02;5.35;;;4.40;;
58260;SDS011;44058;52.898;6.502;2023-05-10T12:19:28;5.38;;;4.28;;
58260;SDS011;44058;52.898;6.502;2023-05-10T12:21:54;5.18;;;3.97;;
58260;SDS011;44058;52.898;6.502;2023-05-10T12:24:20;4.85;;;3.88;;
58260;SDS011;44058;52.898;6.502;2023-05-10T12:26:46;4.53;;;3.83;;
58260;SDS011;44058;52.898;6.502;2023-05-10T12:31:58;9.88;;;5.55;;
58260;SDS011;44058;52.898;6.502;2023-05-10T12:34:25;6.32;;;4.90;;
58260;SDS011;44058;52.898;6.502;2023-05-10T12:36:52;6.03;;;5.00;;
58260;SDS011;44058;52.898;6.502;2023-05-10T12:39:18;9.23;;;5.53;;
58260;SDS011;44058;52.898;6.502;2023-05-10T12:41:44;6.47;;;4.68;;
58260;SDS011;44058;52.898;6.502;2023-05-10T12:44:11;7.00;;;4.90;;
58260;SDS011;44058;52.898;6.502;2023-05-10T12:46:37;6.88;;;5.43;;
58260;SDS011;44058;52.898;6.502;2023-05-10T12:49:03;8.93;;;5.80;;
58260;SDS011;44058;52.898;6.502;2023-05-10T12:51:29;8.45;;;5.95;;
58260;SDS011;44058;52.898;6.502;2023-05-10T12:53:56;9.63;;;6.25;;
58260;SDS011;44058;52.898;6.502;2023-05-10T12:56:22;9.68;;;6.32;;
58260;SDS011;44058;52.898;6.502;2023-05-10T12:58:48;9.23;;;6.80;;
58260;SDS011;44058;52.898;6.502;2023-05-10T13:01:14;8.40;;;6.32;;
58260;SDS011;44058;52.898;6.502;2023-05-10T13:03:40;8.10;;;6.38;;
58260;SDS011;44058;52.898;6.502;2023-05-10T13:06:08;9.73;;;6.60;;
58260;SDS011;44058;52.898;6.502;2023-05-10T13:08:34;10.07;;;6.93;;
58260;SDS011;44058;52.898;6.502;2023-05-10T13:11:02;7.78;;;6.50;;
58260;SDS011;44058;52.898;6.502;2023-05-10T13:13:28;10.18;;;6.78;;
58260;SDS011;44058;52.898;6.502;2023-05-10T13:15:55;9.95;;;7.15;;
58260;SDS011;44058;52.898;6.502;2023-05-10T13:18:21;10.80;;;7.88;;
58260;SDS011;44058;52.898;6.502;2023-05-10T13:20:47;9.20;;;7.63;;
58260;SDS011;44058;52.898;6.502;2023-05-10T13:23:14;9.18;;;7.07;;
58260;SDS011;44058;52.898;6.502;2023-05-10T13:25:40;9.48;;;7.38;;
58260;SDS011;44058;52.898;6.502;2023-05-10T13:28:06;8.93;;;7.32;;
58260;SDS011;44058;52.898;6.502;2023-05-10T13:30:32;10.80;;;8.18;;
58260;SDS011;44058;52.898;6.502;2023-05-10T13:32:58;11.65;;;8.63;;
58260;SDS011;44058;52.898;6.502;2023-05-10T13:35:24;11.65;;;7.82;;
58260;SDS011;44058;52.898;6.502;2023-05-10T13:37:51;13.10;;;8.45;;
58260;SDS011;44058;52.898;6.502;2023-05-10T13:40:18;11.55;;;8.00;;
58260;SDS011;44058;52.898;6.502;2023-05-10T13:42:44;9.32;;;7.43;;
58260;SDS011;44058;52.898;6.502;2023-05-10T13:45:12;12.52;;;8.40;;
58260;SDS011;44058;52.898;6.502;2023-05-10T13:47:38;10.68;;;8.23;;
58260;SDS011;44058;52.898;6.502;2023-05-10T13:50:04;9.93;;;7.68;;
58260;SDS011;44058;52.898;6.502;2023-05-10T13:52:31;10.70;;;7.78;;
58260;SDS011;44058;52.898;6.502;2023-05-10T13:54:57;12.57;;;8.73;;
58260;SDS011;44058;52.898;6.502;2023-05-10T13:57:23;11.60;;;7.78;;
58260;SDS011;44058;52.898;6.502;2023-05-10T13:59:49;11.50;;;8.23;;
58260;SDS011;44058;52.898;6.502;2023-05-10T14:02:15;10.23;;;8.25;;
58260;SDS011;44058;52.898;6.502;2023-05-10T14:04:41;9.85;;;8.00;;
58260;SDS011;44058;52.898;6.502;2023-05-10T14:07:07;10.88;;;8.40;;
58260;SDS011;44058;52.898;6.502;2023-05-10T14:09:33;9.48;;;7.40;;
58260;SDS011;44058;52.898;6.502;2023-05-10T14:11:59;8.48;;;6.85;;
58260;SDS011;44058;52.898;6.502;2023-05-10T14:14:26;12.68;;;7.72;;
58260;SDS011;44058;52.898;6.502;2023-05-10T14:16:53;8.55;;;7.07;;
58260;SDS011;44058;52.898;6.502;2023-05-10T14:19:20;9.73;;;7.43;;
58260;SDS011;44058;52.898;6.502;2023-05-10T14:21:46;9.35;;;7.25;;
58260;SDS011;44058;52.898;6.502;2023-05-10T14:24:12;10.88;;;7.63;;
58260;SDS011;44058;52.898;6.502;2023-05-10T14:26:38;8.82;;;6.95;;
58260;SDS011;44058;52.898;6.502;2023-05-10T14:29:04;8.45;;;7.13;;
58260;SDS011;44058;52.898;6.502;2023-05-10T14:31:30;9.32;;;6.55;;
58260;SDS011;44058;52.898;6.502;2023-05-10T14:33:56;10.07;;;7.57;;
58260;SDS011;44058;52.898;6.502;2023-05-10T14:36:22;9.68;;;7.03;;
58260;SDS011;44058;52.898;6.502;2023-05-10T14:38:49;10.07;;;7.40;;
58260;SDS011;44058;52.898;6.502;2023-05-10T14:41:15;10.65;;;7.82;;
58260;SDS011;44058;52.898;6.502;2023-05-10T14:43:42;8.27;;;6.78;;
58260;SDS011;44058;52.898;6.502;2023-05-10T14:46:08;8.35;;;7.30;;
58260;SDS011;44058;52.898;6.502;2023-05-10T14:48:35;8.40;;;7.22;;
58260;SDS011;44058;52.898;6.502;2023-05-10T14:51:01;9.25;;;7.07;;
58260;SDS011;44058;52.898;6.502;2023-05-10T14:53:27;9.20;;;7.60;;
58260;SDS011;44058;52.898;6.502;2023-05-10T14:55:53;9.55;;;7.45;;
58260;SDS011;44058;52.898;6.502;2023-05-10T14:58:19;8.73;;;6.97;;
58260;SDS011;44058;52.898;6.502;2023-05-10T15:00:45;9.85;;;6.53;;
58260;SDS011;44058;52.898;6.502;2023-05-10T15:03:12;10.25;;;7.57;;
58260;SDS011;44058;52.898;6.502;2023-05-10T15:05:38;10.40;;;7.32;;
58260;SDS011;44058;52.898;6.502;2023-05-10T15:08:04;8.82;;;7.20;;
58260;SDS011;44058;52.898;6.502;2023-05-10T15:10:31;8.45;;;6.95;;
58260;SDS011;44058;52.898;6.502;2023-05-10T15:12:58;9.35;;;7.20;;
58260;SDS011;44058;52.898;6.502;2023-05-10T15:15:24;10.13;;;7.63;;
58260;SDS011;44058;52.898;6.502;2023-05-10T15:17:51;11.55;;;7.45;;